createdAt,value
2018-07-19T00:01:24.571Z,20.07
2018-07-19T00:03:56.446Z,20.14
2018-07-19T00:06:31.244Z,20.11
2018-07-19T00:09:04.816Z,20.11
2018-07-19T00:11:34.847Z,19.83
2018-07-19T00:14:08.066Z,19.68
2018-07-19T00:16:42.655Z,19.52
2018-07-19T00:19:14.218Z,19.48
2018-07-19T00:21:44.439Z,19.52
2018-07-19T00:24:15.912Z,19.49
2018-07-19T00:26:47.562Z,19.52
2018-07-19T00:29:22.244Z,19.49
2018-07-19T00:31:55.651Z,19.49
2018-07-19T00:34:28.539Z,19.46
2018-07-19T00:37:01.559Z,19.33
2018-07-19T00:39:34.042Z,19.42
2018-07-19T00:42:05.484Z,19.46
2018-07-19T00:44:38.679Z,19.48
2018-07-19T00:47:10.672Z,19.53
2018-07-19T00:49:40.717Z,19.63
2018-07-19T00:52:13.825Z,19.61
2018-07-19T00:54:45.302Z,19.55
2018-07-19T00:57:15.370Z,19.36
2018-07-19T00:59:49.222Z,19.36
2018-07-19T01:02:22.421Z,19.49
2018-07-19T01:04:56.305Z,19.43
2018-07-19T01:07:29.418Z,19.54
2018-07-19T01:10:04.340Z,19.51
2018-07-19T01:12:37.592Z,19.43
2018-07-19T01:15:11.473Z,19.51
2018-07-19T01:17:42.949Z,19.55
2018-07-19T01:20:12.961Z,19.59
2018-07-19T01:22:44.791Z,19.60
2018-07-19T01:25:18.126Z,19.56
2018-07-19T01:27:48.149Z,19.53
2018-07-19T01:30:22.829Z,19.54
2018-07-19T01:32:54.350Z,19.47
2018-07-19T01:35:27.381Z,19.37
2018-07-19T01:38:00.407Z,19.32
2018-07-19T01:40:32.645Z,19.24
2018-07-19T01:43:07.358Z,19.25
2018-07-19T01:45:38.839Z,19.16
2018-07-19T01:48:12.148Z,18.99
2018-07-19T01:50:43.777Z,18.94
2018-07-19T01:53:15.218Z,19.12
2018-07-19T01:55:48.304Z,19.18
2018-07-19T01:58:21.366Z,19.13
2018-07-19T02:00:52.830Z,19.15
2018-07-19T02:03:25.861Z,19.17
2018-07-19T02:05:59.166Z,19.17
2018-07-19T02:08:30.887Z,19.19
2018-07-19T02:11:04.220Z,19.22
2018-07-19T02:13:38.989Z,19.21
2018-07-19T02:16:12.177Z,19.20
2018-07-19T02:18:47.192Z,19.21
2018-07-19T02:21:20.369Z,19.29
2018-07-19T02:23:52.028Z,19.30
2018-07-19T02:26:23.578Z,19.32
2018-07-19T02:28:58.205Z,19.36
2018-07-19T02:31:33.011Z,19.36
2018-07-19T02:34:06.608Z,19.35
2018-07-19T02:36:39.620Z,19.25
2018-07-19T02:39:15.226Z,19.02
2018-07-19T02:41:47.049Z,18.95
2018-07-19T02:44:20.219Z,18.92
2018-07-19T02:46:53.658Z,18.94
2018-07-19T02:49:26.808Z,18.95
2018-07-19T02:52:01.877Z,18.88
2018-07-19T02:54:36.307Z,18.90
2018-07-19T02:57:07.921Z,18.90
2018-07-19T02:59:41.058Z,18.91
2018-07-19T03:02:11.996Z,18.89
2018-07-19T03:04:47.105Z,18.70
2018-07-19T03:07:21.820Z,18.44
2018-07-19T03:09:55.015Z,18.10
2018-07-19T03:12:26.892Z,18.09
2018-07-19T03:14:59.968Z,18.20
2018-07-19T03:17:34.647Z,18.14
2018-07-19T03:20:04.028Z,18.08
2018-07-19T03:22:37.552Z,18.10
2018-07-19T03:25:10.541Z,18.08
2018-07-19T03:27:45.232Z,17.66
2018-07-19T03:30:18.275Z,17.71
2018-07-19T03:32:50.126Z,17.67
2018-07-19T03:35:22.310Z,17.55
2018-07-19T03:37:56.305Z,17.70
2018-07-19T03:40:29.615Z,17.80
2018-07-19T03:43:03.498Z,17.92
2018-07-19T03:45:38.098Z,17.97
2018-07-19T03:48:11.497Z,18.07
2018-07-19T03:50:43.222Z,18.05
2018-07-19T03:53:18.065Z,18.08
2018-07-19T03:55:52.840Z,18.12
2018-07-19T03:58:25.930Z,18.15
2018-07-19T04:00:58.988Z,18.20
2018-07-19T04:03:32.358Z,18.19
2018-07-19T04:06:04.072Z,18.19
2018-07-19T04:08:36.850Z,18.19
2018-07-19T04:11:09.821Z,18.14
2018-07-19T04:13:42.840Z,18.07
2018-07-19T04:16:17.200Z,18.22
2018-07-19T04:18:47.533Z,18.15
2018-07-19T04:21:18.079Z,18.11
2018-07-19T04:23:47.569Z,18.20
2018-07-19T04:26:22.143Z,18.14
2018-07-19T04:28:55.151Z,17.87
2018-07-19T04:31:29.897Z,17.93
2018-07-19T04:34:02.967Z,18.01
2018-07-19T04:36:36.021Z,17.93
2018-07-19T04:39:12.069Z,17.78
2018-07-19T04:41:45.329Z,17.73
2018-07-19T04:44:18.405Z,18.06
2018-07-19T04:46:54.995Z,18.09
2018-07-19T04:49:28.905Z,18.32
2018-07-19T04:52:02.833Z,18.67
2018-07-19T04:54:36.085Z,18.65
2018-07-19T04:57:08.493Z,18.81
2018-07-19T04:59:40.605Z,18.93
2018-07-19T05:02:13.926Z,19.58
2018-07-19T05:04:44.097Z,19.68
2018-07-19T05:07:17.178Z,19.76
2018-07-19T05:09:49.386Z,19.87
2018-07-19T05:12:22.711Z,20.25
2018-07-19T05:14:55.760Z,20.58
2018-07-19T05:17:28.781Z,20.92
2018-07-19T05:20:02.257Z,20.89
2018-07-19T05:22:35.362Z,21.15
2018-07-19T05:25:08.959Z,20.77
2018-07-19T05:27:44.577Z,21.32
2018-07-19T05:30:17.989Z,21.47
2018-07-19T05:32:51.533Z,21.47
2018-07-19T05:35:23.881Z,21.36
2018-07-19T05:37:57.039Z,21.55
2018-07-19T05:40:30.416Z,21.54
2018-07-19T05:43:01.960Z,21.58
2018-07-19T05:45:33.474Z,21.35
2018-07-19T05:48:04.963Z,21.26
2018-07-19T05:50:38.298Z,21.54
2018-07-19T05:53:09.800Z,21.51
2018-07-19T05:55:42.922Z,21.34
2018-07-19T05:58:16.071Z,21.55
2018-07-19T06:00:49.001Z,21.65
2018-07-19T06:03:20.636Z,22.00
2018-07-19T06:05:52.235Z,22.02
2018-07-19T06:08:25.350Z,22.33
2018-07-19T06:10:57.095Z,22.43
2018-07-19T06:13:30.109Z,23.04
2018-07-19T06:16:03.323Z,22.94
2018-07-19T06:18:36.748Z,22.85
2018-07-19T06:21:11.403Z,22.87
2018-07-19T06:23:44.837Z,23.53
2018-07-19T06:26:16.724Z,24.18
2018-07-19T06:28:50.170Z,24.42
2018-07-19T06:31:23.206Z,24.91
2018-07-19T06:33:57.818Z,25.65
2018-07-19T06:36:29.262Z,25.40
2018-07-19T06:38:59.272Z,26.32
2018-07-19T06:41:30.728Z,26.35
2018-07-19T06:44:02.378Z,26.69
2018-07-19T06:46:36.980Z,26.84
2018-07-19T06:49:10.268Z,27.12
2018-07-19T06:51:41.762Z,27.36
2018-07-19T06:54:16.134Z,27.30
2018-07-19T06:56:49.081Z,28.08
2018-07-19T06:59:19.687Z,26.88
2018-07-19T07:01:49.706Z,25.12
2018-07-19T07:04:21.258Z,25.70
2018-07-19T07:06:55.883Z,25.49
2018-07-19T07:09:28.098Z,25.37
2018-07-19T07:12:01.137Z,25.47
2018-07-19T07:14:34.225Z,26.64
2018-07-19T07:17:03.880Z,26.90
2018-07-19T07:19:37.414Z,27.59
2018-07-19T07:22:07.248Z,27.85
2018-07-19T07:24:40.167Z,27.69
2018-07-19T07:27:13.000Z,27.83
2018-07-19T07:29:46.068Z,27.75
2018-07-19T07:32:17.260Z,28.10
2018-07-19T07:34:48.749Z,29.51
2018-07-19T07:37:21.663Z,29.80
2018-07-19T07:39:54.617Z,30.48
2018-07-19T07:42:27.553Z,29.86
2018-07-19T07:45:02.005Z,28.75
2018-07-19T07:47:33.518Z,30.23
2018-07-19T07:50:06.454Z,29.76
2018-07-19T07:52:39.642Z,30.24
2018-07-19T07:55:14.422Z,30.11
2018-07-19T07:57:47.279Z,29.91
2018-07-19T08:00:18.748Z,30.30
2018-07-19T08:02:53.483Z,31.05
2018-07-19T08:05:25.315Z,29.66
2018-07-19T08:07:58.322Z,29.35
2018-07-19T08:10:31.356Z,29.65
2018-07-19T08:13:01.450Z,30.22
2018-07-19T08:15:33.363Z,31.11
2018-07-19T08:18:04.788Z,31.39
2018-07-19T08:20:37.962Z,31.23
2018-07-19T08:23:08.546Z,31.88
2018-07-19T08:25:41.562Z,30.92
2018-07-19T08:28:16.131Z,31.35
2018-07-19T08:30:45.367Z,30.81
2018-07-19T08:33:18.329Z,30.61
2018-07-19T08:35:51.231Z,30.29
2018-07-19T08:38:22.625Z,30.19
2018-07-19T08:40:55.637Z,31.49
2018-07-19T08:43:28.615Z,32.01
2018-07-19T08:46:00.129Z,30.04
2018-07-19T08:48:33.056Z,31.16
2018-07-19T08:51:05.898Z,31.47
2018-07-19T08:53:40.422Z,31.39
2018-07-19T08:56:13.557Z,31.72
2018-07-19T08:58:44.909Z,31.75
2018-07-19T09:01:19.405Z,31.14
2018-07-19T09:03:49.431Z,31.46
2018-07-19T09:06:23.859Z,30.61
2018-07-19T09:08:56.757Z,31.19
2018-07-19T09:11:28.532Z,30.50
2018-07-19T09:14:02.992Z,31.90
2018-07-19T09:16:37.362Z,31.06
2018-07-19T09:19:11.972Z,30.62
2018-07-19T09:21:43.412Z,30.79
2018-07-19T09:24:16.271Z,30.76
2018-07-19T09:26:46.693Z,31.85
2018-07-19T09:29:19.207Z,31.55
2018-07-19T09:31:51.008Z,31.18
2018-07-19T09:34:22.478Z,31.21
2018-07-19T09:36:55.382Z,31.96
2018-07-19T09:39:28.374Z,32.10
2018-07-19T09:42:00.733Z,31.39
2018-07-19T09:44:34.172Z,32.06
2018-07-19T09:47:06.494Z,32.35
2018-07-19T09:49:41.586Z,32.36
2018-07-19T09:52:16.608Z,32.07
2018-07-19T09:55:03.643Z,32.19
2018-07-19T09:57:37.204Z,32.95
2018-07-19T10:00:09.181Z,33.30
2018-07-19T10:02:40.798Z,30.77
2018-07-19T10:05:15.166Z,32.52
2018-07-19T10:07:45.905Z,32.55
2018-07-19T10:10:17.725Z,33.01
2018-07-19T10:12:50.931Z,32.73
2018-07-19T10:15:21.733Z,31.14
2018-07-19T10:17:55.552Z,30.99
2018-07-19T10:20:27.406Z,31.42
2018-07-19T10:23:00.732Z,32.38
2018-07-19T10:25:33.946Z,32.07
2018-07-19T10:28:07.512Z,32.89
2018-07-19T10:30:39.500Z,32.86
2018-07-19T10:33:14.706Z,32.19
2018-07-19T10:35:49.690Z,31.94
2018-07-19T10:38:23.130Z,32.37
2018-07-19T10:40:55.582Z,32.92
2018-07-19T10:43:28.113Z,33.32
2018-07-19T10:46:02.150Z,33.07
2018-07-19T10:48:36.874Z,32.65
2018-07-19T10:51:10.068Z,33.45
2018-07-19T10:53:42.907Z,33.43
2018-07-19T10:56:16.036Z,32.65
2018-07-19T10:58:49.544Z,32.41
2018-07-19T11:01:19.711Z,33.14
2018-07-19T11:03:54.608Z,32.71
2018-07-19T11:06:29.374Z,32.02
2018-07-19T11:09:02.057Z,32.96
2018-07-19T11:11:35.236Z,32.63
2018-07-19T11:14:05.935Z,32.00
2018-07-19T11:16:39.187Z,31.23
2018-07-19T11:19:12.403Z,30.77
2018-07-19T11:21:45.865Z,32.31
2018-07-19T11:24:19.335Z,32.76
2018-07-19T11:26:52.374Z,33.33
2018-07-19T11:29:25.793Z,33.84
2018-07-19T11:31:59.055Z,34.04
2018-07-19T11:34:31.398Z,33.16
2018-07-19T11:37:03.696Z,32.60
2018-07-19T11:39:36.934Z,32.37
2018-07-19T11:42:12.107Z,32.20
2018-07-19T11:44:46.918Z,31.91
2018-07-19T11:47:19.663Z,30.76
2018-07-19T11:49:54.627Z,30.18
2018-07-19T11:52:27.963Z,30.66
2018-07-19T11:55:03.023Z,30.38
2018-07-19T11:57:35.328Z,30.57
2018-07-19T12:00:10.981Z,30.36
2018-07-19T12:02:45.922Z,30.75
2018-07-19T12:05:17.880Z,29.77
2018-07-19T12:07:51.469Z,30.24
2018-07-19T12:10:26.306Z,30.12
2018-07-19T12:12:59.848Z,29.68
2018-07-19T12:15:33.546Z,30.46
2018-07-19T12:18:08.559Z,30.29
2018-07-19T12:20:41.987Z,30.59
2018-07-19T12:23:13.774Z,30.74
2018-07-19T12:25:47.197Z,31.53
2018-07-19T12:28:22.206Z,31.20
2018-07-19T12:30:53.777Z,30.84
2018-07-19T12:33:25.591Z,31.23
2018-07-19T12:35:56.774Z,31.63
2018-07-19T12:38:31.175Z,31.06
2018-07-19T12:41:02.957Z,31.07
2018-07-19T12:43:36.370Z,31.57
2018-07-19T12:46:07.620Z,31.61
2018-07-19T12:48:40.826Z,31.63
2018-07-19T12:51:15.627Z,31.90
2018-07-19T12:53:49.026Z,31.89
2018-07-19T12:56:19.276Z,31.68
2018-07-19T12:58:51.208Z,31.76
2018-07-19T13:01:24.663Z,31.50
2018-07-19T13:03:59.683Z,30.93
2018-07-19T13:06:32.980Z,30.87
2018-07-19T13:09:06.780Z,30.04
2018-07-19T13:11:37.473Z,30.34
2018-07-19T13:14:09.755Z,29.84
2018-07-19T13:16:40.613Z,30.36
2018-07-19T13:19:13.003Z,30.49
2018-07-19T13:21:43.267Z,30.10
2018-07-19T13:24:16.679Z,29.82
2018-07-19T13:26:48.532Z,29.94
2018-07-19T13:29:21.928Z,29.82
2018-07-19T13:31:53.888Z,30.78
2018-07-19T13:34:28.632Z,31.03
2018-07-19T13:37:02.119Z,31.39
2018-07-19T13:39:37.132Z,31.47
2018-07-19T13:42:10.687Z,31.61
2018-07-19T13:44:44.172Z,31.52
2018-07-19T13:47:16.109Z,31.69
2018-07-19T13:49:49.283Z,31.41
2018-07-19T13:52:25.637Z,31.18
2018-07-19T13:54:56.284Z,31.60
2018-07-19T13:57:29.636Z,30.68
2018-07-19T14:00:01.628Z,31.36
2018-07-19T14:02:33.507Z,31.24
2018-07-19T14:05:06.322Z,30.73
2018-07-19T14:07:39.745Z,31.31
2018-07-19T14:10:13.196Z,30.66
2018-07-19T14:12:46.340Z,31.28
2018-07-19T14:15:20.256Z,30.85
2018-07-19T14:17:50.405Z,30.99
2018-07-19T14:20:21.760Z,30.96
2018-07-19T14:22:53.579Z,31.16
2018-07-19T14:25:26.977Z,30.79
2018-07-19T14:27:58.782Z,30.81
2018-07-19T14:30:32.427Z,30.90
2018-07-19T14:33:06.463Z,30.78
2018-07-19T14:35:44.611Z,29.71
2018-07-19T14:38:16.985Z,29.58
2018-07-19T14:40:50.790Z,30.08
2018-07-19T14:43:20.964Z,29.54
2018-07-19T14:45:53.283Z,29.38
2018-07-19T14:48:25.140Z,29.87
2018-07-19T14:50:56.015Z,29.78
2018-07-19T14:53:27.766Z,29.05
2018-07-19T14:56:00.948Z,28.53
2018-07-19T14:58:35.460Z,28.35
2018-07-19T15:01:07.135Z,28.52
2018-07-19T15:03:37.470Z,29.06
2018-07-19T15:06:12.423Z,29.34
2018-07-19T15:08:45.645Z,29.29
2018-07-19T15:11:19.016Z,28.87
2018-07-19T15:13:50.644Z,29.01
2018-07-19T15:16:21.059Z,29.01
2018-07-19T15:18:52.998Z,28.96
2018-07-19T15:21:23.321Z,29.15
2018-07-19T15:23:57.551Z,29.32
2018-07-19T15:26:30.155Z,29.33
2018-07-19T15:29:04.924Z,29.26
2018-07-19T15:31:38.273Z,28.96
2018-07-19T15:34:10.011Z,28.92
2018-07-19T15:36:43.430Z,29.29
2018-07-19T15:39:15.961Z,29.47
2018-07-19T15:41:49.737Z,29.38
2018-07-19T15:44:24.807Z,29.24
2018-07-19T15:46:59.571Z,29.28
2018-07-19T15:49:32.040Z,29.12
2018-07-19T15:52:04.401Z,28.82
2018-07-19T15:54:38.296Z,28.63
2018-07-19T15:57:13.168Z,28.77
2018-07-19T15:59:45.974Z,27.50
2018-07-19T16:02:21.039Z,27.63
2018-07-19T16:04:53.128Z,27.77
2018-07-19T16:07:27.508Z,27.53
2018-07-19T16:09:59.483Z,27.66
2018-07-19T16:12:33.092Z,27.57
2018-07-19T16:15:04.901Z,27.70
2018-07-19T16:17:36.586Z,27.63
2018-07-19T16:20:08.664Z,27.25
2018-07-19T16:22:43.595Z,27.42
2018-07-19T16:25:18.932Z,27.04
2018-07-19T16:27:52.408Z,26.88
2018-07-19T16:30:24.388Z,27.15
2018-07-19T16:32:59.360Z,26.81
2018-07-19T16:35:31.775Z,27.02
2018-07-19T16:38:05.316Z,26.95
2018-07-19T16:40:37.810Z,27.16
2018-07-19T16:43:10.212Z,27.22
2018-07-19T16:45:41.980Z,27.11
2018-07-19T16:48:13.809Z,27.37
2018-07-19T16:50:47.474Z,27.33
2018-07-19T16:53:20.820Z,27.10
2018-07-19T16:55:54.101Z,26.99
2018-07-19T16:58:27.812Z,27.14
2018-07-19T17:00:59.515Z,27.01
2018-07-19T17:03:33.841Z,26.89
2018-07-19T17:06:06.841Z,26.76
2018-07-19T17:08:39.813Z,26.89
2018-07-19T17:11:14.761Z,27.11
2018-07-19T17:13:47.809Z,26.92
2018-07-19T17:16:20.961Z,26.50
2018-07-19T17:18:54.101Z,26.49
2018-07-19T17:21:27.021Z,26.29
2018-07-19T17:23:57.041Z,26.20
2018-07-19T17:26:30.017Z,26.21
2018-07-19T17:29:04.386Z,25.89
2018-07-19T17:31:34.464Z,25.83
2018-07-19T17:34:07.465Z,25.84
2018-07-19T17:36:39.929Z,25.72
2018-07-19T17:39:15.641Z,25.75
2018-07-19T17:41:47.074Z,25.54
2018-07-19T17:44:20.641Z,25.56
2018-07-19T17:46:53.658Z,25.40
2018-07-19T17:49:25.202Z,25.43
2018-07-19T17:51:58.142Z,25.48
2018-07-19T17:54:30.820Z,25.31
2018-07-19T17:57:02.282Z,25.21
2018-07-19T17:59:34.856Z,24.94
2018-07-19T18:02:06.386Z,25.08
2018-07-19T18:04:37.828Z,24.98
2018-07-19T18:07:07.902Z,24.75
2018-07-19T18:09:42.295Z,24.78
2018-07-19T18:12:14.407Z,24.73
2018-07-19T18:14:45.904Z,24.52
2018-07-19T18:17:16.508Z,24.52
2018-07-19T18:19:49.479Z,24.56
2018-07-19T18:22:21.147Z,24.31
2018-07-19T18:24:54.341Z,24.40
2018-07-19T18:27:27.329Z,24.42
2018-07-19T18:30:00.371Z,24.28
2018-07-19T18:32:31.859Z,24.38
2018-07-19T18:35:02.374Z,24.13
2018-07-19T18:37:34.557Z,24.24
2018-07-19T18:40:06.621Z,24.19
2018-07-19T18:42:39.900Z,24.04
2018-07-19T18:45:13.220Z,24.09
2018-07-19T18:47:44.890Z,23.90
2018-07-19T18:50:19.442Z,23.98
2018-07-19T18:52:53.921Z,23.82
2018-07-19T18:55:27.521Z,23.83
2018-07-19T18:58:00.579Z,23.66
2018-07-19T19:00:30.634Z,23.76
2018-07-19T19:03:05.118Z,23.64
2018-07-19T19:05:38.142Z,23.66
2018-07-19T19:08:11.282Z,23.62
2018-07-19T19:10:42.822Z,23.56
2018-07-19T19:13:15.777Z,23.39
2018-07-19T19:15:49.446Z,23.45
2018-07-19T19:18:20.986Z,23.29
2018-07-19T19:20:54.501Z,23.31
2018-07-19T19:23:27.553Z,23.23
2018-07-19T19:26:00.577Z,23.11
2018-07-19T19:28:31.991Z,23.11
2018-07-19T19:31:05.325Z,22.88
2018-07-19T19:33:38.238Z,22.74
2018-07-19T19:36:11.391Z,22.64
2018-07-19T19:38:42.852Z,22.52
2018-07-19T19:41:14.220Z,22.45
2018-07-19T19:43:48.649Z,22.22
2018-07-19T19:46:20.897Z,22.13
2018-07-19T19:48:52.598Z,22.12
2018-07-19T19:51:22.721Z,21.93
2018-07-19T19:53:54.266Z,21.93
2018-07-19T19:56:25.835Z,21.83
2018-07-19T19:58:59.105Z,21.88
2018-07-19T20:01:32.171Z,21.81
2018-07-19T20:04:03.622Z,21.80
2018-07-19T20:06:38.001Z,21.81
2018-07-19T20:09:13.489Z,21.64
2018-07-19T20:11:46.430Z,21.70
2018-07-19T20:14:17.524Z,21.58
2018-07-19T20:16:50.651Z,21.45
2018-07-19T20:19:23.729Z,21.40
2018-07-19T20:21:53.859Z,21.37
2018-07-19T20:24:25.400Z,21.35
2018-07-19T20:26:56.938Z,21.24
2018-07-19T20:29:27.577Z,21.23
2018-07-19T20:31:59.061Z,21.33
2018-07-19T20:34:32.276Z,21.27
2018-07-19T20:37:05.256Z,21.12
2018-07-19T20:39:38.308Z,21.04
2018-07-19T20:42:11.590Z,21.05
2018-07-19T20:44:44.597Z,20.97
2018-07-19T20:47:18.047Z,21.05
2018-07-19T20:49:51.671Z,21.01
2018-07-19T20:52:26.307Z,20.88
2018-07-19T20:54:58.238Z,20.88
2018-07-19T20:57:31.787Z,20.75
2018-07-19T21:00:05.128Z,20.83
2018-07-19T21:02:38.248Z,20.69
2018-07-19T21:05:09.940Z,20.68
2018-07-19T21:07:40.628Z,20.72
2018-07-19T21:10:15.292Z,20.62
2018-07-19T21:12:45.464Z,20.47
2018-07-19T21:15:19.628Z,20.51
2018-07-19T21:17:52.695Z,20.35
2018-07-19T21:20:25.949Z,20.30
2018-07-19T21:23:00.408Z,20.26
2018-07-19T21:25:33.460Z,20.28
2018-07-19T21:28:06.704Z,20.18
2018-07-19T21:30:38.274Z,20.12
2018-07-19T21:33:13.268Z,20.22
2018-07-19T21:35:44.793Z,20.17
2018-07-19T21:38:17.695Z,20.03
2018-07-19T21:40:51.191Z,20.12
2018-07-19T21:43:25.909Z,19.96
2018-07-19T21:45:58.863Z,20.01
2018-07-19T21:48:30.348Z,20.01
2018-07-19T21:51:04.964Z,19.85
2018-07-19T21:53:36.414Z,19.89
2018-07-19T21:56:09.491Z,19.75
2018-07-19T21:58:41.130Z,19.70
2018-07-19T22:01:14.802Z,19.66
2018-07-19T22:03:46.628Z,19.69
2018-07-19T22:06:18.154Z,19.60
2018-07-19T22:08:49.815Z,19.68
2018-07-19T22:11:20.528Z,19.58
2018-07-19T22:13:53.543Z,19.51
2018-07-19T22:16:25.244Z,19.40
2018-07-19T22:18:58.256Z,19.38
2018-07-19T22:21:31.618Z,19.46
2018-07-19T22:24:04.834Z,19.36
2018-07-19T22:26:36.355Z,19.33
2018-07-19T22:29:11.191Z,19.38
2018-07-19T22:31:44.212Z,19.33
2018-07-19T22:34:18.824Z,19.28
2018-07-19T22:36:51.793Z,19.23
2018-07-19T22:39:25.020Z,19.22
2018-07-19T22:41:58.218Z,19.29
2018-07-19T22:44:29.871Z,19.28
2018-07-19T22:47:02.122Z,19.20
2018-07-19T22:49:35.225Z,19.10
2018-07-19T22:52:08.289Z,19.09
2018-07-19T22:54:39.830Z,19.01
2018-07-19T22:57:11.473Z,19.03
2018-07-19T22:59:43.714Z,19.01
2018-07-19T23:02:15.428Z,18.95
2018-07-19T23:04:48.707Z,18.93
2018-07-19T23:07:23.147Z,18.84
2018-07-19T23:09:53.695Z,18.86
2018-07-19T23:12:26.309Z,18.81
2018-07-19T23:14:57.760Z,18.83
2018-07-19T23:17:29.873Z,18.80
2018-07-19T23:20:04.627Z,18.86
2018-07-19T23:22:35.836Z,18.83
2018-07-19T23:25:08.936Z,18.72
2018-07-19T23:27:42.024Z,18.67
2018-07-19T23:30:15.146Z,18.51
2018-07-19T23:32:46.709Z,18.23
2018-07-19T23:35:20.367Z,18.09
2018-07-19T23:37:54.130Z,17.97
2018-07-19T23:40:34.494Z,17.91
2018-07-19T23:43:15.571Z,17.93
2018-07-19T23:46:06.392Z,17.96
2018-07-19T23:48:39.661Z,17.87
2018-07-19T23:51:11.274Z,17.92
2018-07-19T23:53:42.987Z,17.98
2018-07-19T23:56:16.050Z,17.90
2018-07-19T23:58:49.579Z,17.78
